Pagrindinis puslapis
METAR-TAF:

METAR-TAF

Oro uostai :

Džida, Saudo Arabija

platuma: 21-42N, ilguma: 039-11E, Aukštis: 15 m

Dabartinis oras

Ataskaita buvo paskelbta 1 valandą ir 2 minutes, ne 04:00 UTC
Vėjas 3 kt iš Šiaurės
Temperatūra 29°C
Drėgmė 79%
Slėgis 1006 hPa
Matomumas 10 km arba daugiau
nėra debesų žemiau 1500 m ir nėra kamuolinių lietaus debesų

METAR: OEJN 180400Z 36003KT CAVOK 29/25 Q1006 NOSIG

Laikas: 08:02 (05:02 UTC)

Prognozė

Ataskaita buvo paskelbta 6 valandos ir 2 minutes, ne 23:00 UTC
Prognozė galioja nuo 18 metu 00 UTC su 19 metu 06 UTC
Vėjas 6 kt iš Rytų/Šiaurės Rytų
Matomumas: 7000 m
Mažai debesys ne aukštis 4000 ft
Išsisklaidę debesys ne aukštis 10000 ft
Tapsmas
nuo 18 metu 06 UTC su 18 metu 08 UTC
Vėjas 14 kt iš Vakarų/Šiaurės Vakarų

TAF: OEJN 172300Z 1800/1906 06006KT 7000 FEW040 SCT100 BECMG 1806/1808 29014KT

Orai ataskaitas ir orų prognozės (METAR, TAF).

turimą stotys yra geltonos ir raudonos taškus žemėlapyje.

Perkelti pele per norėdami pamatyti stoties vardą.

Tada spustelėkite, norėdami matyti oro stebėjimo ir prognozės.

Norėdami pakeisti žemėlapį: spustelėkite ant žalios mygtukų su juodo kryžiaus žemyn,; žalią mygtuką su brūkšneliu, jei norite nutolinti; arba žalių rodyklių gretimoms žemėlapius.


METAR-TAF: